1. Syn Wałęsy umie prowadzić auto nawet po pijaku, a Kaczyński nawet nie ma prawa jazdy!

  2. Lvl niedojebania umysłowego: patrzy w prawo i lewo na chodniku czy auto w nią nie pierdolnie

  3. Oferujemy leasing różnych typów samochodów osobowych i ciężarowych. Nowe i używane... ale to nie wszystko! Sprawdź!

  4. 241000Z AUTO 30005KT 9SM CLR 10/09 A3000 RMK SLP161

  5. 240950Z AUTO 25009KT 220V290 9999 SCT049 19/12 Q1017

  6. 240950Z AUTO 25009KT 9999 SCT021 OVC047 18/12 Q1017

  7. odcinek Oborniki-Rogoźno, na wysokości miejscowości Parkowo pali się auto osobowe. Kłopot z przejazdem.

  8. YPEA 240930Z AUTO 13012KT 9999 // NCD 19/10 Q1022

  9. YPCC 240930Z AUTO 12020KT 9999 // SCT018 BKN074 26/21 Q1012